Lemon Grove, CA (91946)

2:06 PM PDT on July 28, 2015 (GMT -0700)
APRSWXNET | | Change Station
CLOSE
Current Station
Personal Weather Station
Location: Lemon Grove, CA
Elevation: 439 ft
Nearby Weather Stations

Elev 439 ft 32.74 °N, 117.03 °W | Updated 22 minutes ago

Clear
Clear
78 °F
Feels Like 80 °F
N
7
Wind Variable Wind from West
Gusts 14.0 mph

Today
High -- | Low -- °F
--% Chance of Precip.
Yesterday
High -- | Low -- °F
Precip. -- in
5:59 AM 7:49 PM
Waxing Gibbous, 91% visible
Pressure 29.88 in
Visibility 9.0 miles
Clouds Clear
Heat Index 80 °F
Dew Point 64 °F
Humidity 63%
Rainfall in
Snow Depth Not available.
UV 11 out of 12
Pollen 3.20 out of 12
Air Quality Not available.
Flu Activity Not available.
METAR KSEE 282055Z AUTO 27008KT 9SM CLR 30/16 A2988 RMK AO2

More Conditions Fewer Conditions

Pressure 29.88 in
Visibility 9.0 miles
Clouds Clear
Heat Index 80 °F
Dew Point 64 °F
Humidity 63%
Rainfall in
Snow Depth Not available.
UV 11 out of 12
Pollen 3.20 out of 12
Air Quality Not available.
Flu Activity Not available.
METAR KSEE 282055Z AUTO 27008KT 9SM CLR 30/16 A2988 RMK AO2

More Conditions Fewer Conditions

10-Day Weather Forecast

×

Almanac

Astronomy

Jul. 28, 2015 Rise Set
Actual Time
Civil Twilight
Nautical Twilight
Astronomical Twilight
Moon
Length of Visible Light
Length of Day
Tomorrow will be .
, % of the Moon is Illuminated

Today's Extremes

State Highs State Lows

Community

WunderPhotos

Upload Photos

1,841,942 photos uploaded!

WunderBlogs® & News

Nearby

Air Quality

  Air Quality AQ Index Pollutant
Not available.

Snow Depth

Station Depth Elevation

Earthquake Activity

City Distance Mag. Time & Date
Minimum magnitude displayed is 2.5.

Coastal Water Temperatures

Place Temperature

Stations

Nearby Weather Stations

Station Location Temp. Windchill Dew Point Humidity Wind Precip. Elev Updated Type